Cleveland, TN (37323)

3:35 PM EDT on September 22, 2014 (GMT -0400)
Waterville | Change Station
CLOSE
Current Station
Personal Weather Station
Location: Cleveland, TN
Elevation: 869 ft
Nearby Weather Stations

Elev 869 ft 35.10 °N, 84.86 °W | Updated 5 minutes ago

Clear
Clear
72.5 °F
Feels Like 77 °F
N
1.6
Wind Variable Wind from North
Gusts 4.5 mph

Today
High -- | Low -- °F
--% Chance of Precip.
Yesterday
High -- | Low -- °F
Precip. -- in
7:27 AM 7:36 PM
Waning Crescent, 2% visible
Pressure 30.13 in
Visibility 10.0 miles
Clouds Clear
Heat Index 77 °F
Dew Point 53 °F
Humidity 51%
Rainfall 0.00 in
Snow Depth Not available.
UV 7 out of 12
Pollen 6.60 out of 12
Air Quality Not available.
Flu Activity Not available.
METAR KRZR 221915Z AUTO 02012KT 10SM CLR 23/08 A3013 RMK

More Conditions Fewer Conditions

Pressure 30.13 in
Visibility 10.0 miles
Clouds Clear
Heat Index 77 °F
Dew Point 53 °F
Humidity 51%
Rainfall 0.00 in
Snow Depth Not available.
UV 7 out of 12
Pollen 6.60 out of 12
Air Quality Not available.
Flu Activity Not available.
METAR KRZR 221915Z AUTO 02012KT 10SM CLR 23/08 A3013 RMK

More Conditions Fewer Conditions

10-Day Weather Forecast

Almanac

Astronomy

Sep. 22, 2014 Rise Set
Actual Time 7:27 AM EDT 7:36 PM EDT
Civil Twilight 7:02 AM EDT 8:01 PM EDT
Nautical Twilight 6:32 AM EDT 8:31 PM EDT
Astronomical Twilight 6:02 AM EDT 9:00 PM EDT
Moon 5:57 AM EDT 6:42 PM EDT
Length of Visible Light 12h 59m
Length of Day
12h 08m
Tomorrow will be 2m 11s shorter.
Waning Crescent, 2% of the Moon is Illuminated
Today
Waning Crescent
Sep 24
New
Oct 1
First Quarter
Oct 8
Full
Oct 15
Last Quarter

Today's Extremes

State Highs State Lows

Community

WunderPhotos

Upload Photos

1,755,514 photos uploaded!

WunderBlogs® & News

Nearby

Snow Depth

Station Depth Elevation
No new snow has been reported.

Earthquake Activity

City Distance Mag. Time & Date
Sweetwater, Tennessee 43 miles 2.5 3:54 PM EDT
2014-09-20
Minimum magnitude displayed is 2.5.

Coastal Water Temperatures

Place Temperature
No Stations Reporting

Nearby Weather Stations